createdAt,value
2019-01-24T00:02:15.839Z,-6.66
2019-01-24T00:07:21.053Z,-6.66
2019-01-24T00:12:26.648Z,-6.62
2019-01-24T00:17:32.234Z,-6.63
2019-01-24T00:22:37.812Z,-6.63
2019-01-24T00:27:43.004Z,-6.59
2019-01-24T00:32:48.519Z,-6.51
2019-01-24T00:37:54.146Z,-6.50
2019-01-24T00:42:59.401Z,-6.47
2019-01-24T00:48:04.890Z,-6.49
2019-01-24T00:53:10.089Z,-6.47
2019-01-24T00:58:15.932Z,-6.46
2019-01-24T01:03:21.127Z,-6.35
2019-01-24T01:08:26.850Z,-6.36
2019-01-24T01:13:33.017Z,-6.33
2019-01-24T01:18:39.011Z,-6.34
2019-01-24T01:23:45.552Z,-6.29
2019-01-24T01:28:50.736Z,-6.33
2019-01-24T01:33:55.927Z,-6.33
2019-01-24T01:39:01.496Z,-6.33
2019-01-24T01:44:07.059Z,-6.27
2019-01-24T01:49:12.248Z,-6.19
2019-01-24T01:54:17.448Z,-6.20
2019-01-24T01:59:22.980Z,-6.23
2019-01-24T02:04:28.285Z,-6.17
2019-01-24T02:09:33.778Z,-6.16
2019-01-24T02:14:39.000Z,-6.15
2019-01-24T02:19:44.222Z,-6.07
2019-01-24T02:24:49.430Z,-6.15
2019-01-24T02:29:54.633Z,-6.16
2019-01-24T02:34:59.824Z,-6.15
2019-01-24T02:40:06.368Z,-6.11
2019-01-24T02:45:13.962Z,-6.10
2019-01-24T02:50:20.769Z,-6.07
2019-01-24T02:55:25.959Z,-6.06
2019-01-24T03:00:31.215Z,-6.10
2019-01-24T03:05:36.704Z,-6.09
2019-01-24T03:10:42.036Z,-6.11
2019-01-24T03:15:47.703Z,-6.11
2019-01-24T03:20:52.908Z,-5.99
2019-01-24T03:25:59.189Z,-6.04
2019-01-24T03:31:05.033Z,-6.01
2019-01-24T03:36:10.261Z,-6.05
2019-01-24T03:41:15.451Z,-6.04
2019-01-24T03:46:20.643Z,-6.05
2019-01-24T03:51:25.837Z,-6.05
2019-01-24T03:56:31.031Z,-5.97
2019-01-24T04:01:36.223Z,-5.98
2019-01-24T04:06:41.431Z,-6.01
2019-01-24T04:11:46.741Z,-6.02
2019-01-24T04:16:52.309Z,-5.99
2019-01-24T04:21:57.512Z,-6.03
2019-01-24T04:27:03.158Z,-6.04
2019-01-24T04:32:08.352Z,-6.05
2019-01-24T04:37:13.536Z,-6.01
2019-01-24T04:42:19.736Z,-6.01
2019-01-24T04:47:25.340Z,-5.76
2019-01-24T04:52:30.900Z,-5.87
2019-01-24T04:57:36.253Z,-5.89
2019-01-24T05:02:41.466Z,-5.93
2019-01-24T05:07:46.664Z,-5.96
2019-01-24T05:12:52.993Z,-5.99
2019-01-24T05:17:58.593Z,-5.97
2019-01-24T05:23:03.800Z,-5.95
2019-01-24T05:28:09.005Z,-5.96
2019-01-24T05:33:15.041Z,-5.93
2019-01-24T05:38:20.235Z,-5.94
2019-01-24T05:43:25.727Z,-5.93
2019-01-24T05:48:32.723Z,-5.91
2019-01-24T05:53:37.925Z,-5.94
2019-01-24T05:58:43.528Z,-5.85
2019-01-24T06:03:49.042Z,-5.84
2019-01-24T06:08:55.034Z,-5.77
2019-01-24T06:14:00.255Z,-5.72
2019-01-24T06:19:05.681Z,-5.74
2019-01-24T06:24:11.244Z,-5.76
2019-01-24T06:29:16.569Z,-5.78
2019-01-24T06:34:21.775Z,-5.80
2019-01-24T06:39:27.071Z,-5.82
2019-01-24T06:44:32.213Z,-5.80
2019-01-24T06:49:38.562Z,-5.78
2019-01-24T06:54:44.041Z,-5.85
2019-01-24T06:59:49.318Z,-5.82
2019-01-24T07:04:54.536Z,-5.81
2019-01-24T07:10:00.152Z,-5.80
2019-01-24T07:15:07.072Z,-5.77
2019-01-24T07:20:12.831Z,-5.74
2019-01-24T07:25:23.657Z,-5.74
2019-01-24T07:30:29.260Z,-5.71
2019-01-24T07:35:34.468Z,-5.71
2019-01-24T07:40:39.943Z,-5.68
2019-01-24T07:45:45.152Z,-5.65
2019-01-24T07:50:50.454Z,-5.63
2019-01-24T07:55:55.687Z,-5.60
2019-01-24T08:01:00.884Z,-5.56
2019-01-24T08:06:09.256Z,-5.53
2019-01-24T08:11:13.556Z,-5.48
2019-01-24T08:16:19.156Z,-5.50
2019-01-24T08:21:24.555Z,-5.49
2019-01-24T08:26:29.756Z,-5.46
2019-01-24T08:31:34.998Z,-5.40
2019-01-24T08:36:40.320Z,-5.35
2019-01-24T08:41:47.618Z,-5.31
2019-01-24T08:46:52.819Z,-5.23
2019-01-24T08:51:58.584Z,-5.19
2019-01-24T08:57:03.777Z,-5.15
2019-01-24T09:02:09.092Z,-5.15
2019-01-24T09:07:14.302Z,-5.06
2019-01-24T09:12:19.540Z,-5.05
2019-01-24T09:17:24.954Z,-5.01
2019-01-24T09:22:30.524Z,-4.80
2019-01-24T09:27:36.052Z,-4.86
2019-01-24T09:32:41.388Z,-4.80
2019-01-24T09:37:46.588Z,-4.74
2019-01-24T09:42:51.808Z,-4.62
2019-01-24T09:47:59.467Z,-4.54
2019-01-24T09:53:04.678Z,-4.51
2019-01-24T09:58:09.952Z,-4.39
2019-01-24T10:03:15.943Z,-4.31
2019-01-24T10:08:21.504Z,-4.18
2019-01-24T10:13:26.708Z,-4.13
2019-01-24T10:18:32.141Z,-4.01
2019-01-24T10:23:37.715Z,-3.92
2019-01-24T10:28:43.023Z,-3.81
2019-01-24T10:33:48.688Z,-3.66
2019-01-24T10:38:53.885Z,-3.58
2019-01-24T10:43:59.449Z,-3.44
2019-01-24T10:49:04.754Z,-3.48
2019-01-24T10:54:09.959Z,-3.28
2019-01-24T10:59:15.425Z,-3.32
2019-01-24T11:04:20.719Z,-3.16
2019-01-24T11:09:26.348Z,-3.08
2019-01-24T11:14:31.571Z,-3.07
2019-01-24T11:19:36.814Z,-3.14
2019-01-24T11:24:42.033Z,-2.98
2019-01-24T11:29:47.678Z,-2.97
2019-01-24T11:34:52.910Z,-2.91
2019-01-24T11:39:58.123Z,-2.80
2019-01-24T11:45:03.324Z,-2.82
2019-01-24T11:50:13.062Z,-2.77
2019-01-24T11:55:19.667Z,-2.75
2019-01-24T12:00:39.556Z,-2.77
2019-01-24T12:05:44.759Z,-2.75
2019-01-24T12:10:49.970Z,-2.76
2019-01-24T12:15:55.202Z,-2.81
2019-01-24T12:21:00.395Z,-2.75
2019-01-24T12:26:06.080Z,-2.80
2019-01-24T12:31:11.365Z,-2.81
2019-01-24T12:36:17.253Z,-2.76
2019-01-24T12:41:22.488Z,-2.80
2019-01-24T12:46:27.987Z,-2.84
2019-01-24T12:51:33.194Z,-2.83
2019-01-24T12:56:38.523Z,-2.89
2019-01-24T13:01:44.038Z,-2.84
2019-01-24T13:06:49.240Z,-2.79
2019-01-24T13:11:54.442Z,-2.89
2019-01-24T13:17:00.079Z,-2.93
2019-01-24T13:22:05.779Z,-2.94
2019-01-24T13:27:11.357Z,-2.87
2019-01-24T13:32:16.579Z,-2.93
2019-01-24T13:37:25.792Z,-2.91
2019-01-24T13:42:28.687Z,-2.97
2019-01-24T13:47:34.267Z,-3.02
2019-01-24T13:52:39.470Z,-3.01
2019-01-24T13:57:44.782Z,-3.10
2019-01-24T14:02:52.247Z,-3.02
2019-01-24T14:07:57.500Z,-3.08
2019-01-24T14:13:02.737Z,-3.12
2019-01-24T14:18:08.086Z,-3.15
2019-01-24T14:23:13.288Z,-3.27
2019-01-24T14:28:18.513Z,-3.34
2019-01-24T14:33:23.868Z,-3.36
2019-01-24T14:38:29.139Z,-3.38
2019-01-24T14:43:34.776Z,-3.37
2019-01-24T14:48:40.108Z,-3.38
2019-01-24T14:53:45.305Z,-3.39
2019-01-24T14:58:50.508Z,-3.41
2019-01-24T15:03:55.832Z,-3.41
2019-01-24T15:09:01.068Z,-3.49
2019-01-24T15:14:06.576Z,-3.48
2019-01-24T15:19:12.511Z,-3.49
2019-01-24T15:24:17.861Z,-3.54
2019-01-24T15:29:23.478Z,-3.53
2019-01-24T15:34:28.691Z,-3.55
2019-01-24T15:39:34.204Z,-3.59
2019-01-24T15:44:39.875Z,-3.61
2019-01-24T15:49:45.079Z,-3.66
2019-01-24T15:54:50.640Z,-3.69
2019-01-24T15:59:55.897Z,-3.75
2019-01-24T16:05:01.746Z,-3.76
2019-01-24T16:10:10.419Z,-3.79
2019-01-24T16:15:18.547Z,-3.82
2019-01-24T16:20:24.818Z,-3.87
2019-01-24T16:25:31.596Z,-3.90
2019-01-24T16:30:37.563Z,-3.94
2019-01-24T16:35:42.911Z,-3.95
2019-01-24T16:40:49.068Z,-3.99
2019-01-24T16:45:54.663Z,-4.00
2019-01-24T16:51:01.225Z,-3.99
2019-01-24T16:56:06.651Z,-4.02
2019-01-24T17:01:22.236Z,-4.03
2019-01-24T17:06:27.443Z,-4.06
2019-01-24T17:11:33.055Z,-4.08
2019-01-24T17:16:39.428Z,-4.10
2019-01-24T17:21:44.639Z,-4.12
2019-01-24T17:26:50.211Z,-4.12
2019-01-24T17:31:55.888Z,-4.14
2019-01-24T17:37:01.324Z,-4.15
2019-01-24T17:42:06.850Z,-4.18
2019-01-24T17:47:12.043Z,-4.20
2019-01-24T17:52:17.455Z,-4.19
2019-01-24T17:57:23.117Z,-4.20
2019-01-24T18:02:29.184Z,-4.22
2019-01-24T18:07:34.454Z,-4.23
2019-01-24T18:12:39.910Z,-4.23
2019-01-24T18:17:46.475Z,-4.23
2019-01-24T18:22:52.082Z,-4.18
2019-01-24T18:27:57.272Z,-4.17
2019-01-24T18:33:02.477Z,-4.17
2019-01-24T18:38:08.642Z,-4.20
2019-01-24T18:43:20.655Z,-4.24
2019-01-24T18:48:25.902Z,-4.25
2019-01-24T18:53:31.451Z,-4.26
2019-01-24T18:58:38.235Z,-4.24
2019-01-24T19:03:44.594Z,-4.24
2019-01-24T19:08:49.871Z,-4.20
2019-01-24T19:13:55.084Z,-4.19
2019-01-24T19:19:00.310Z,-4.21
2019-01-24T19:24:05.626Z,-4.23
2019-01-24T19:29:10.833Z,-4.26
2019-01-24T19:34:16.051Z,-4.25
2019-01-24T19:39:21.408Z,-4.26
2019-01-24T19:44:27.693Z,-4.28
2019-01-24T19:49:33.110Z,-4.28
2019-01-24T19:54:38.313Z,-4.29
2019-01-24T19:59:43.519Z,-4.31
2019-01-24T20:04:48.735Z,-4.33
2019-01-24T20:09:53.939Z,-4.32
2019-01-24T20:14:59.343Z,-4.34
2019-01-24T20:20:06.435Z,-4.33
2019-01-24T20:25:14.044Z,-4.35
2019-01-24T20:30:24.219Z,-4.37
2019-01-24T20:35:41.169Z,-4.37
2019-01-24T20:40:46.666Z,-4.37
2019-01-24T20:45:51.867Z,-4.39
2019-01-24T20:50:57.358Z,-4.39
2019-01-24T20:56:03.663Z,-4.42
2019-01-24T21:01:10.011Z,-4.42
2019-01-24T21:06:16.251Z,-4.42
2019-01-24T21:11:21.819Z,-4.45
2019-01-24T21:16:27.042Z,-4.46
2019-01-24T21:21:32.244Z,-4.47
2019-01-24T21:26:37.891Z,-4.51
2019-01-24T21:31:43.409Z,-4.51
2019-01-24T21:36:48.612Z,-4.52
2019-01-24T21:41:53.814Z,-4.51
2019-01-24T21:46:59.485Z,-4.52
2019-01-24T21:52:04.903Z,-4.51
2019-01-24T21:57:10.104Z,-4.51
2019-01-24T22:02:15.708Z,-4.49
2019-01-24T22:07:21.392Z,-4.49
2019-01-24T22:12:26.915Z,-4.50
2019-01-24T22:17:32.847Z,-4.53
2019-01-24T22:22:38.776Z,-4.54
2019-01-24T22:27:44.620Z,-4.56
2019-01-24T22:32:50.314Z,-4.59
2019-01-24T22:37:55.691Z,-4.60
2019-01-24T22:43:00.898Z,-4.62
2019-01-24T22:48:07.461Z,-4.68
2019-01-24T22:53:13.049Z,-4.71
2019-01-24T22:58:18.537Z,-4.71
2019-01-24T23:03:33.150Z,-4.75
2019-01-24T23:08:39.250Z,-4.75
2019-01-24T23:13:44.536Z,-4.75
2019-01-24T23:18:50.411Z,-4.77
2019-01-24T23:23:55.948Z,-4.82
2019-01-24T23:29:01.643Z,-4.82
2019-01-24T23:34:07.407Z,-4.84
2019-01-24T23:39:12.608Z,-4.85
2019-01-24T23:44:17.803Z,-4.84
2019-01-24T23:49:23.771Z,-4.89
2019-01-24T23:54:29.331Z,-4.88
2019-01-24T23:59:34.662Z,-4.90
